Time;durP1;ratioP1;P1;durP2;ratioP2;P2;SDS_P1;SDS_P2;PMS_P1;PMS_P2;Temp;Humidity;BMP_temperature;BMP_pressure;BME280_temperature;BME280_humidity;BME280_pressure;Samples;Min_cycle;Max_cycle;Signal;HPM_P1;HPM_P2
2021/08/13 12:51:22;;;;;;;;;;;;;;;;;;;;;
2021/08/13 14:01:08;;;;;;;12.90;7.65;;;31.00;98.50;;;;;;1143524;23;20713;-95
2021/08/13 14:04:02;;;;;;;13.10;8.10;;;31.20;98.50;;;;;;4892314;29;20519;-96
2021/08/13 14:12:23;;;;;;;21.90;8.00;;;32.10;95.70;;;;;;5621148;23;20447;-96
2021/08/13 14:21:37;;;;;;;18.80;7.63;;;31.30;94.30;;;;;;5106088;23;20455;-96
2021/08/13 14:25:32;;;;;;;;;;;;;;;;;;;;;
2021/08/13 14:32:14;;;;;;;13.07;7.43;;;31.30;95.50;;;;;;4988847;23;20433;-96
2021/08/13 14:35:52;;;;;;;;;;;;;;;;;;;;;
2021/08/13 14:38:59;;;;;;;14.95;7.18;;;31.90;95.00;;;;;;4878167;29;20465;-96
2021/08/13 14:47:17;;;;;;;13.77;7.00;;;31.90;92.80;;;;;;5189386;23;20445;-96
2021/08/13 14:50:40;;;;;;;14.60;6.57;;;32.10;95.60;;;;;;4915149;29;20485;-96
2021/08/13 14:53:22;;;;;;;13.13;6.82;;;32.40;94.40;;;;;;4867037;29;20433;-96
2021/08/13 14:55:57;;;;;;;10.43;6.57;;;32.20;93.30;;;;;;5163968;23;20433;-96
2021/08/13 14:58:28;;;;;;;12.88;6.88;;;31.80;93.30;;;;;;4910787;29;20444;-96
2021/08/13 15:01:39;;;;;;;9.35;6.78;;;32.10;94.20;;;;;;4908442;29;20516;-96
2021/08/13 15:05:04;;;;;;;11.45;7.15;;;32.10;92.60;;;;;;4914821;29;20452;-96
2021/08/13 15:07:48;;;;;;;19.90;6.25;;;31.90;92.40;;;;;;4914106;29;20981;-96
2021/08/13 15:10:23;;;;;;;11.33;6.87;;;31.80;94.50;;;;;;4912966;29;20429;-96
2021/08/13 15:16:18;;;;;;;12.57;6.88;;;32.10;92.40;;;;;;4985324;23;20449;-96
2021/08/13 15:22:40;;;;;;;9.37;5.90;;;32.10;91.00;;;;;;5254582;23;20472;-96
2021/08/13 15:25:35;;;;;;;13.25;6.82;;;31.80;91.20;;;;;;4929355;29;20465;-96
2021/08/13 15:28:31;;;;;;;11.23;7.18;;;31.80;97.90;;;;;;4903603;29;20452;-96
2021/08/13 15:31:04;;;;;;;15.80;7.47;;;30.20;99.00;;;;;;4903606;29;20782;-90
2021/08/13 15:33:31;;;;;;;10.43;6.97;;;29.10;99.40;;;;;;4905388;29;20504;-91
2021/08/13 15:36:01;;;;;;;13.40;6.80;;;28.70;99.40;;;;;;4905402;29;20437;-95
2021/08/13 15:38:28;;;;;;;8.95;6.75;;;28.50;97.50;;;;;;4917184;29;20464;-96
2021/08/13 15:40:57;;;;;;;12.57;7.30;;;28.40;97.10;;;;;;4964409;23;20518;-96
2021/08/13 15:43:24;;;;;;;11.97;7.60;;;28.40;98.00;;;;;;4934215;29;20462;-96
2021/08/13 15:45:59;;;;;;;14.57;7.13;;;28.60;98.10;;;;;;4938400;29;20456;-96
2021/08/13 15:48:46;;;;;;;15.75;7.40;;;28.90;97.20;;;;;;4939846;29;20447;-96
2021/08/13 15:51:15;;;;;;;12.45;6.93;;;29.10;97.10;;;;;;4917245;28;20463;-96
2021/08/13 15:53:42;;;;;;;13.98;6.97;;;29.00;96.80;;;;;;4913231;29;20491;-96
2021/08/13 15:56:11;;;;;;;13.98;6.70;;;28.80;96.50;;;;;;4929104;29;20927;-96
2021/08/13 15:58:40;;;;;;;10.97;6.80;;;28.70;96.70;;;;;;4912581;29;21020;-96
2021/08/13 16:01:10;;;;;;;10.27;6.05;;;28.60;97.40;;;;;;4916254;29;20439;-96
2021/08/13 16:03:48;;;;;;;13.48;6.78;;;28.60;96.40;;;;;;4930743;29;20998;-96
2021/08/13 16:06:22;;;;;;;10.97;6.53;;;28.30;95.30;;;;;;4921913;29;20447;-96
2021/08/13 16:09:03;;;;;;;11.98;6.53;;;28.10;95.30;;;;;;4905965;29;20836;-96
2021/08/13 16:11:37;;;;;;;12.23;6.80;;;27.90;95.70;;;;;;4931860;29;20434;-96
2021/08/13 16:14:21;;;;;;;12.07;6.53;;;27.80;97.40;;;;;;4935492;29;20454;-96
2021/08/13 16:16:49;;;;;;;12.23;6.37;;;27.80;95.90;;;;;;4933658;29;20451;-96
2021/08/13 16:19:19;;;;;;;9.35;6.35;;;27.80;96.10;;;;;;4932152;29;20431;-96
2021/08/13 16:21:46;;;;;;;11.73;6.65;;;27.80;96.50;;;;;;4931678;29;20451;-96
2021/08/13 16:24:13;;;;;;;11.90;6.67;;;28.10;96.60;;;;;;4933361;29;20499;-96
2021/08/13 16:26:42;;;;;;;15.20;6.80;;;28.30;95.60;;;;;;4932263;29;20452;-96
2021/08/13 16:29:11;;;;;;;12.27;6.18;;;28.50;96.20;;;;;;4932373;29;20515;-96
2021/08/13 16:31:39;;;;;;;10.93;6.40;;;28.50;95.30;;;;;;4913910;29;20439;-96
2021/08/13 16:34:09;;;;;;;15.35;6.63;;;28.60;96.20;;;;;;4915160;29;20429;-96
2021/08/13 16:36:52;;;;;;;11.32;7.10;;;28.60;96.10;;;;;;4901005;29;20445;-96
2021/08/13 16:39:33;;;;;;;10.73;6.43;;;28.40;96.20;;;;;;4898687;29;20461;-96
2021/08/13 16:42:02;;;;;;;12.65;6.60;;;28.20;96.30;;;;;;4915031;29;20432;-96
2021/08/13 16:44:30;;;;;;;11.45;6.57;;;28.00;96.70;;;;;;4908685;29;20495;-96
2021/08/13 16:46:57;;;;;;;10.95;6.35;;;27.70;97.30;;;;;;4913808;29;20436;-96
2021/08/13 16:49:30;;;;;;;12.88;6.65;;;27.60;97.60;;;;;;4911972;29;20505;-96
2021/08/13 16:52:01;;;;;;;15.38;8.35;;;27.40;98.20;;;;;;4895478;29;20424;-96
2021/08/13 16:54:28;;;;;;;11.75;7.40;;;27.30;99.70;;;;;;4909981;29;20433;-96
2021/08/13 16:57:09;;;;;;;13.98;7.35;;;27.30;99.90;;;;;;4911494;29;20432;-96
2021/08/13 16:59:39;;;;;;;10.55;6.80;;;27.10;99.90;;;;;;4909046;29;20941;-96
2021/08/13 17:02:07;;;;;;;12.65;6.97;;;26.90;99.90;;;;;;4893338;29;20962;-96
2021/08/13 17:04:34;;;;;;;11.80;7.50;;;26.60;99.90;;;;;;4909460;29;20425;-96
2021/08/13 17:07:03;;;;;;;13.13;7.70;;;26.40;99.90;;;;;;4893186;29;20436;-96
2021/08/13 17:09:35;;;;;;;14.77;7.38;;;26.20;99.90;;;;;;4924720;29;20456;-96
2021/08/13 17:12:03;;;;;;;11.53;7.07;;;26.20;99.90;;;;;;4906479;29;20456;-96
2021/08/13 17:14:30;;;;;;;10.10;7.00;;;26.10;99.90;;;;;;4907451;29;20440;-96
2021/08/13 17:16:57;;;;;;;13.85;7.82;;;25.80;99.90;;;;;;4906229;29;20948;-96
2021/08/13 17:19:26;;;;;;;11.25;7.20;;;25.50;99.90;;;;;;4916311;29;20417;-96
2021/08/13 17:21:54;;;;;;;14.35;8.02;;;25.30;99.90;;;;;;4924210;29;20441;-96
2021/08/13 17:24:22;;;;;;;14.85;7.70;;;25.10;99.90;;;;;;4911020;29;20437;-96
2021/08/13 17:26:51;;;;;;;13.75;7.70;;;25.00;99.90;;;;;;4894240;29;20514;-96
2021/08/13 17:29:20;;;;;;;12.80;7.50;;;24.90;99.90;;;;;;4909238;29;20430;-96
2021/08/13 17:31:50;;;;;;;10.73;7.57;;;25.00;99.90;;;;;;4894595;29;20476;-96
2021/08/13 17:34:17;;;;;;;12.10;7.25;;;24.90;99.90;;;;;;4893966;29;20610;-96
2021/08/13 17:36:45;;;;;;;16.52;7.80;;;24.80;99.90;;;;;;4911741;29;20429;-96
2021/08/13 17:39:13;;;;;;;13.95;7.88;;;24.70;99.90;;;;;;4894970;29;20444;-96
2021/08/13 17:41:40;;;;;;;15.47;7.60;;;24.50;99.90;;;;;;4910432;29;20500;-96
2021/08/13 17:44:08;;;;;;;14.48;8.10;;;24.20;99.90;;;;;;4914333;29;20435;-96
2021/08/13 17:46:35;;;;;;;11.38;7.60;;;24.00;99.90;;;;;;4913762;29;20436;-96
2021/08/13 17:49:03;;;;;;;14.48;8.18;;;23.90;99.90;;;;;;4912720;29;20456;-96
2021/08/13 17:51:36;;;;;;;15.27;8.65;;;23.60;99.90;;;;;;4916138;29;20429;-96
2021/08/13 17:54:03;;;;;;;12.77;8.10;;;23.40;99.90;;;;;;4883145;29;20543;-96
2021/08/13 17:56:32;;;;;;;13.07;8.23;;;23.30;99.90;;;;;;4912290;29;20429;-96
2021/08/13 17:59:00;;;;;;;15.85;8.38;;;23.10;99.90;;;;;;4912936;29;20433;-96
2021/08/13 18:01:28;;;;;;;13.65;8.18;;;22.90;99.90;;;;;;4912394;29;20508;-96
2021/08/13 18:03:55;;;;;;;13.73;8.65;;;22.60;99.90;;;;;;4912581;29;20444;-96
2021/08/13 18:06:36;;;;;;;12.97;8.63;;;22.50;99.90;;;;;;4914291;29;20440;-96
2021/08/13 18:09:04;;;;;;;13.17;8.80;;;22.30;99.90;;;;;;4913268;29;20500;-96
2021/08/13 18:11:32;;;;;;;18.60;9.30;;;22.30;99.90;;;;;;4914947;29;20440;-96
2021/08/13 18:14:00;;;;;;;14.10;8.63;;;22.00;99.90;;;;;;4898358;29;20448;-96
2021/08/13 18:16:30;;;;;;;13.68;8.90;;;21.80;99.90;;;;;;4914813;29;20539;-96
2021/08/13 18:19:14;;;;;;;15.90;9.15;;;21.70;99.90;;;;;;4931286;29;20424;-96
2021/08/13 18:21:43;;;;;;;15.40;9.27;;;21.50;99.90;;;;;;4914855;29;20429;-96
2021/08/13 18:24:12;;;;;;;19.23;8.95;;;21.40;99.90;;;;;;4913033;29;20946;-96
2021/08/13 18:26:42;;;;;;;17.13;9.73;;;21.40;99.90;;;;;;4899140;29;20430;-96
2021/08/13 18:29:23;;;;;;;12.73;8.77;;;21.10;99.90;;;;;;4914170;29;20437;-96
2021/08/13 18:31:52;;;;;;;14.68;9.05;;;21.20;99.90;;;;;;4913544;29;20444;-96
2021/08/13 18:34:20;;;;;;;13.93;9.30;;;21.10;99.90;;;;;;4897952;29;20440;-96
2021/08/13 18:36:49;;;;;;;15.45;10.02;;;20.90;99.90;;;;;;4911909;29;20439;-96
2021/08/13 18:39:18;;;;;;;14.37;9.43;;;20.80;99.90;;;;;;4909768;29;20435;-96
2021/08/13 18:41:47;;;;;;;16.15;9.23;;;20.80;99.90;;;;;;4910135;29;20437;-93
2021/08/13 18:44:15;;;;;;;13.70;9.17;;;20.90;99.90;;;;;;4911065;29;20509;-96
2021/08/13 18:46:46;;;;;;;15.48;9.50;;;20.90;99.90;;;;;;4910434;29;20429;-96
2021/08/13 18:49:14;;;;;;;16.13;10.18;;;20.70;99.90;;;;;;4911267;29;20465;-96
2021/08/13 18:51:43;;;;;;;17.30;9.73;;;20.70;99.90;;;;;;4894613;29;20429;-96
2021/08/13 18:54:14;;;;;;;15.93;9.95;;;20.70;99.90;;;;;;4909928;29;20433;-96
2021/08/13 18:56:42;;;;;;;14.02;9.70;;;20.60;99.90;;;;;;4927439;29;20594;-96
2021/08/13 18:59:12;;;;;;;16.23;10.18;;;20.70;99.90;;;;;;4909852;29;20429;-96
2021/08/13 19:01:40;;;;;;;18.60;10.68;;;20.70;99.90;;;;;;4924378;29;20484;-95
2021/08/13 19:04:07;;;;;;;22.33;10.03;;;20.70;99.90;;;;;;4923093;29;20920;-95
2021/08/13 19:06:34;;;;;;;15.87;10.70;;;20.70;99.90;;;;;;4911044;29;20497;-95
2021/08/13 19:09:02;;;;;;;21.52;10.48;;;20.50;99.90;;;;;;4908031;29;20445;-95
2021/08/13 19:11:30;;;;;;;20.05;10.10;;;20.50;99.90;;;;;;4911070;29;20449;-96
2021/08/13 19:13:57;;;;;;;19.20;10.25;;;20.50;99.90;;;;;;4909222;29;20439;-96
2021/08/13 19:16:24;;;;;;;14.77;10.27;;;20.50;99.90;;;;;;4909877;29;20429;-96
2021/08/13 19:18:52;;;;;;;19.05;9.95;;;20.40;99.90;;;;;;4925973;29;20461;-93
2021/08/13 19:21:19;;;;;;;17.00;10.40;;;20.30;99.90;;;;;;4907836;29;20439;-96
2021/08/13 19:23:47;;;;;;;17.50;10.43;;;20.30;99.90;;;;;;4908870;29;20425;-96
2021/08/13 19:26:15;;;;;;;20.02;10.27;;;20.30;99.90;;;;;;4924416;29;20437;-96
2021/08/13 19:28:42;;;;;;;15.43;10.40;;;20.20;99.90;;;;;;4893839;29;20437;-96
2021/08/13 19:31:09;;;;;;;15.60;10.47;;;20.30;99.90;;;;;;4908057;29;20429;-96
2021/08/13 19:33:37;;;;;;;13.88;10.43;;;20.30;99.90;;;;;;4910342;29;20433;-95
2021/08/13 19:36:04;;;;;;;17.95;10.13;;;20.20;99.90;;;;;;4908819;29;20429;-96
2021/08/13 19:38:33;;;;;;;22.80;10.00;;;20.20;99.90;;;;;;4908324;29;20434;-96
2021/08/13 19:41:00;;;;;;;18.08;10.65;;;20.30;99.90;;;;;;4907203;29;20718;-95
2021/08/13 19:43:32;;;;;;;14.95;10.50;;;20.20;99.90;;;;;;4891577;29;20434;-96
2021/08/13 19:45:59;;;;;;;19.73;10.40;;;20.10;99.90;;;;;;4907428;29;20489;-96
2021/08/13 19:48:27;;;;;;;17.50;9.95;;;20.10;99.90;;;;;;4905661;29;21032;-96
2021/08/13 19:50:54;;;;;;;19.33;10.40;;;20.10;99.90;;;;;;4907927;29;20425;-96
2021/08/13 19:53:22;;;;;;;27.42;9.75;;;20.10;99.90;;;;;;4906831;29;20433;-96
2021/08/13 19:55:49;;;;;;;19.05;9.43;;;20.10;99.90;;;;;;4907857;29;20463;-95
2021/08/13 19:58:17;;;;;;;15.30;8.30;;;20.10;99.90;;;;;;4907613;29;20433;-96
2021/08/13 20:00:46;;;;;;;25.02;8.07;;;20.10;99.90;;;;;;4907582;29;20432;-95
2021/08/13 20:03:14;;;;;;;137.23;17.57;;;20.10;99.90;;;;;;4905740;29;20468;-96
2021/08/13 20:05:42;;;;;;;339.80;106.75;;;20.20;99.90;;;;;;4905664;29;20452;-96
2021/08/13 20:08:23;;;;;;;481.02;88.38;;;20.10;99.90;;;;;;4906217;29;20453;-96
2021/08/13 20:10:50;;;;;;;20.10;11.55;;;19.90;99.90;;;;;;4905467;29;20436;-95
2021/08/13 20:13:18;;;;;;;23.38;13.65;;;20.00;99.90;;;;;;4890402;29;20444;-96
2021/08/13 20:15:45;;;;;;;18.52;11.27;;;20.10;99.90;;;;;;4905936;29;20925;-93
2021/08/13 20:18:15;;;;;;;18.87;10.37;;;20.10;99.90;;;;;;4905917;29;20489;-96
2021/08/13 20:20:42;;;;;;;16.25;10.30;;;20.30;99.90;;;;;;4905510;29;20471;-96
2021/08/13 20:23:09;;;;;;;20.17;10.15;;;20.10;99.90;;;;;;4903799;29;20443;-96
2021/08/13 20:25:36;;;;;;;21.98;10.60;;;20.10;99.90;;;;;;4903992;29;20778;-96
2021/08/13 20:28:05;;;;;;;16.67;10.90;;;20.00;99.90;;;;;;4903563;29;20449;-95
2021/08/13 20:30:32;;;;;;;16.90;11.10;;;19.90;99.90;;;;;;4903771;29;20520;-96
2021/08/13 20:33:01;;;;;;;18.90;10.82;;;19.80;99.90;;;;;;4904476;29;20433;-96
2021/08/13 20:35:29;;;;;;;18.53;10.30;;;20.00;99.90;;;;;;4903150;29;20436;-96
2021/08/13 20:37:56;;;;;;;17.87;10.50;;;20.10;99.90;;;;;;4903138;29;20437;-96
2021/08/13 20:40:23;;;;;;;16.10;10.40;;;20.10;99.90;;;;;;4904195;29;20524;-96
2021/08/13 20:42:51;;;;;;;19.17;10.90;;;20.00;99.90;;;;;;4919558;29;20507;-95
2021/08/13 20:45:19;;;;;;;15.30;10.83;;;19.90;99.90;;;;;;4923562;29;20441;-96
2021/08/13 20:47:46;;;;;;;19.67;10.65;;;19.90;99.90;;;;;;4904329;29;20437;-94
2021/08/13 20:50:13;;;;;;;17.50;10.80;;;19.80;99.90;;;;;;4904796;29;20433;-96
2021/08/13 20:52:40;;;;;;;16.40;10.50;;;19.70;99.90;;;;;;4903205;29;20435;-96
2021/08/13 20:55:08;;;;;;;17.90;10.40;;;19.60;99.90;;;;;;4904585;29;20429;-96
2021/08/13 20:57:35;;;;;;;21.52;10.75;;;19.60;99.90;;;;;;4906265;29;20433;-96
2021/08/13 21:00:04;;;;;;;21.75;11.10;;;19.60;99.90;;;;;;4903833;29;20424;-96
2021/08/13 21:02:31;;;;;;;19.20;11.13;;;19.50;99.90;;;;;;4905091;29;20437;-96
2021/08/13 21:04:59;;;;;;;17.15;11.05;;;19.50;99.90;;;;;;4904106;29;20508;-96
2021/08/13 21:07:26;;;;;;;19.00;10.80;;;19.60;99.90;;;;;;4903664;29;20429;-96
2021/08/13 21:09:53;;;;;;;17.13;11.40;;;19.60;99.90;;;;;;4903619;29;20433;-96
2021/08/13 21:12:20;;;;;;;16.02;11.00;;;19.60;99.90;;;;;;4904510;29;20429;-95
2021/08/13 21:14:47;;;;;;;19.15;11.68;;;19.60;99.90;;;;;;4904261;29;20433;-96
2021/08/13 21:17:14;;;;;;;20.50;11.48;;;19.60;99.90;;;;;;4905990;29;20433;-95
2021/08/13 21:19:45;;;;;;;18.38;11.57;;;19.60;99.90;;;;;;4907459;29;20962;-96
2021/08/13 21:22:13;;;;;;;17.17;11.80;;;19.60;99.90;;;;;;4907268;29;20459;-95
2021/08/13 21:24:40;;;;;;;20.02;12.20;;;19.60;99.90;;;;;;4907257;29;20429;-96
2021/08/13 21:27:07;;;;;;;16.85;11.70;;;19.70;99.90;;;;;;4907116;29;20762;-96
2021/08/13 21:29:34;;;;;;;16.52;11.10;;;19.80;99.90;;;;;;4907036;29;20451;-96
2021/08/13 21:32:03;;;;;;;18.42;11.00;;;19.90;99.90;;;;;;4906910;29;20433;-96
2021/08/13 21:34:32;;;;;;;20.98;10.60;;;20.00;99.90;;;;;;4907338;29;20436;-96
2021/08/13 21:36:59;;;;;;;16.70;10.25;;;20.20;99.90;;;;;;4907453;29;20424;-96
2021/08/13 21:39:27;;;;;;;21.13;11.00;;;20.20;99.90;;;;;;4907444;29;20759;-96
2021/08/13 21:41:56;;;;;;;14.70;10.77;;;20.10;99.90;;;;;;4906478;29;20528;-96
2021/08/13 21:44:24;;;;;;;16.77;10.73;;;20.20;99.90;;;;;;4905569;29;20457;-95
2021/08/13 21:46:51;;;;;;;19.48;11.43;;;20.30;99.90;;;;;;4905591;29;20955;-96
2021/08/13 21:49:22;;;;;;;17.92;10.80;;;20.30;99.90;;;;;;4911108;29;20452;-94
2021/08/13 21:51:59;;;;;;;22.65;11.07;;;20.40;99.90;;;;;;4911543;29;20435;-96
2021/08/13 21:54:26;;;;;;;19.10;10.38;;;20.50;99.90;;;;;;4914645;29;20432;-96
2021/08/13 21:59:30;;;;;;;20.52;8.27;;;20.40;99.90;;;;;;5030029;23;20499;-96
2021/08/13 22:02:14;;;;;;;15.43;8.37;;;20.30;99.90;;;;;;4954243;29;20427;-96
2021/08/13 22:04:43;;;;;;;17.23;8.67;;;20.20;99.90;;;;;;4930489;29;20442;-96
2021/08/13 22:09:46;;;;;;;29.20;10.43;;;19.90;99.90;;;;;;5188324;23;20455;-96
2021/08/13 22:12:17;;;;;;;24.95;12.07;;;19.70;99.90;;;;;;4929027;29;20438;-96
2021/08/13 22:14:44;;;;;;;25.13;13.27;;;19.30;99.90;;;;;;4888716;29;20426;-94
2021/08/13 22:17:20;;;;;;;23.98;14.10;;;19.10;99.90;;;;;;4934804;29;20432;-96
2021/08/13 22:19:51;;;;;;;25.30;12.95;;;18.90;99.90;;;;;;4928963;29;20432;-96
2021/08/13 22:22:18;;;;;;;28.67;15.37;;;18.80;99.90;;;;;;4926808;29;20431;-96
2021/08/13 22:24:46;;;;;;;36.97;17.95;;;18.80;99.90;;;;;;4945741;29;20412;-96
2021/08/13 22:27:15;;;;;;;40.42;20.05;;;18.80;99.90;;;;;;4951606;29;20499;-96
2021/08/13 22:29:42;;;;;;;30.60;16.10;;;18.70;99.90;;;;;;4922773;29;20455;-96
2021/08/13 22:32:11;;;;;;;45.92;20.25;;;18.70;99.90;;;;;;4907020;29;20429;-96
2021/08/13 22:34:39;;;;;;;39.80;20.20;;;18.60;99.90;;;;;;4907390;29;20927;-95
2021/08/13 22:37:06;;;;;;;58.95;26.45;;;18.50;99.90;;;;;;4905982;29;20436;-95
2021/08/13 22:39:33;;;;;;;43.30;24.90;;;18.40;99.90;;;;;;4903926;29;20448;-96
2021/08/13 22:42:01;;;;;;;50.23;26.07;;;18.40;99.90;;;;;;4904348;29;20436;-96
2021/08/13 22:44:28;;;;;;;59.28;28.58;;;18.40;99.90;;;;;;4908296;28;20417;-95
2021/08/13 22:46:56;;;;;;;50.92;25.60;;;18.50;99.90;;;;;;4904642;29;20542;-96
2021/08/13 22:49:23;;;;;;;57.22;29.40;;;18.40;99.90;;;;;;4914912;29;20548;-96
2021/08/13 22:51:50;;;;;;;51.47;29.00;;;18.40;99.90;;;;;;4905666;29;20433;-96
2021/08/13 22:54:20;;;;;;;66.88;32.85;;;18.40;99.90;;;;;;4904739;29;20437;-96
2021/08/13 22:56:47;;;;;;;56.20;24.97;;;18.50;99.90;;;;;;4904921;29;20435;-95
2021/08/13 22:59:14;;;;;;;40.93;18.97;;;18.40;99.90;;;;;;4905641;29;20437;-96
2021/08/13 23:01:41;;;;;;;31.73;15.13;;;18.50;99.90;;;;;;4905025;29;20425;-96
2021/08/13 23:04:09;;;;;;;73.95;26.23;;;18.40;99.90;;;;;;4904519;29;20443;-96
2021/08/13 23:06:36;;;;;;;79.97;27.92;;;18.20;99.90;;;;;;4904370;29;20984;-96
2021/08/13 23:09:03;;;;;;;72.72;26.95;;;18.30;99.90;;;;;;4887154;29;20449;-95
2021/08/13 23:11:30;;;;;;;72.93;30.00;;;18.20;99.90;;;;;;4904047;29;20435;-96
2021/08/13 23:13:57;;;;;;;83.93;34.97;;;18.20;99.90;;;;;;4902873;29;20443;-95
2021/08/13 23:16:24;;;;;;;85.57;29.55;;;18.10;99.90;;;;;;4902804;29;20535;-96
2021/08/13 23:18:51;;;;;;;67.22;25.40;;;18.20;99.90;;;;;;4903590;29;20453;-95
2021/08/13 23:21:18;;;;;;;53.97;25.55;;;18.20;99.90;;;;;;4903131;29;20431;-95
2021/08/13 23:23:45;;;;;;;53.33;25.58;;;18.10;99.90;;;;;;4902578;29;20452;-96
2021/08/13 23:26:12;;;;;;;66.88;27.67;;;18.30;99.90;;;;;;4903022;29;20436;-95
2021/08/13 23:28:40;;;;;;;44.55;18.55;;;18.20;99.90;;;;;;4902778;29;20451;-96
2021/08/13 23:31:10;;;;;;;53.15;26.40;;;18.20;99.90;;;;;;4902654;29;20509;-95
2021/08/13 23:33:40;;;;;;;55.60;25.58;;;18.10;99.90;;;;;;4903198;29;20439;-95
2021/08/13 23:36:07;;;;;;;50.78;24.80;;;18.10;99.90;;;;;;4903202;29;20988;-96
2021/08/13 23:38:34;;;;;;;66.70;29.60;;;18.10;99.90;;;;;;4902614;29;20430;-95
2021/08/13 23:41:03;;;;;;;49.03;20.75;;;18.10;99.90;;;;;;4903234;29;20508;-96
2021/08/13 23:43:30;;;;;;;53.10;24.60;;;18.00;99.90;;;;;;4904634;29;20433;-96
2021/08/13 23:45:57;;;;;;;68.32;29.50;;;18.00;99.90;;;;;;4904026;29;20510;-96
2021/08/13 23:48:25;;;;;;;57.08;27.70;;;18.10;99.90;;;;;;4902996;29;20441;-95
2021/08/13 23:50:52;;;;;;;69.80;34.42;;;18.20;99.90;;;;;;4903454;29;20444;-96
2021/08/13 23:53:19;;;;;;;53.67;25.35;;;18.20;99.90;;;;;;4902561;29;20777;-96
2021/08/13 23:55:46;;;;;;;67.90;31.73;;;18.20;99.90;;;;;;4902916;29;20767;-96
2021/08/13 23:58:13;;;;;;;53.47;25.45;;;18.30;99.90;;;;;;4903749;29;20425;-95
